Time;durP1;ratioP1;P1;durP2;ratioP2;P2;SDS_P1;SDS_P2;PMS_P1;PMS_P2;Temp;Humidity;BMP_temperature;BMP_pressure;BME280_temperature;BME280_humidity;BME280_pressure;Samples;Min_cycle;Max_cycle;Signal;HPM_P1;HPM_P2
2023/04/26 00:02:21;;;;;;;1.00;0.90;;;5.40;97.30;;;;;;4986237;28;20455;-83
2023/04/26 00:04:57;;;;;;;1.33;1.23;;;5.40;97.30;;;;;;4976269;28;20186;-84
2023/04/26 00:07:23;;;;;;;1.90;1.83;;;5.40;97.30;;;;;;4982613;28;20208;-86
2023/04/26 00:09:53;;;;;;;1.10;1.00;;;5.40;97.30;;;;;;4999677;28;20829;-89
2023/04/26 00:12:18;;;;;;;1.60;1.50;;;5.40;97.30;;;;;;5009829;28;20530;-89
2023/04/26 00:14:44;;;;;;;1.10;1.00;;;5.30;97.30;;;;;;5006759;28;20421;-87
2023/04/26 00:17:10;;;;;;;1.10;1.00;;;5.30;97.30;;;;;;4975298;28;20499;-86
2023/04/26 00:19:35;;;;;;;1.67;1.57;;;5.30;97.30;;;;;;4994109;28;20174;-86
2023/04/26 00:22:01;;;;;;;1.10;1.00;;;5.30;97.30;;;;;;4995278;28;20202;-84
2023/04/26 00:24:27;;;;;;;1.37;1.27;;;5.20;97.30;;;;;;4994071;28;20175;-84
2023/04/26 00:26:54;;;;;;;1.10;1.10;;;5.20;97.30;;;;;;4992863;28;20439;-87
2023/04/26 00:29:20;;;;;;;1.50;1.43;;;5.20;97.30;;;;;;4992256;28;20185;-85
2023/04/26 00:31:45;;;;;;;2.60;1.67;;;5.20;97.30;;;;;;4983513;28;20460;-84
2023/04/26 00:34:11;;;;;;;2.90;2.03;;;5.20;97.30;;;;;;4967880;28;20210;-88
2023/04/26 00:36:36;;;;;;;1.30;1.20;;;5.20;97.30;;;;;;4978286;28;20190;-85
2023/04/26 00:39:02;;;;;;;1.93;1.87;;;5.20;97.30;;;;;;4984578;28;20195;-84
2023/04/26 00:41:28;;;;;;;1.30;1.20;;;5.20;97.30;;;;;;4981924;28;20682;-85
2023/04/26 00:43:54;;;;;;;1.13;1.03;;;5.20;97.30;;;;;;4991540;28;20426;-86
2023/04/26 00:46:20;;;;;;;1.33;1.23;;;5.20;97.30;;;;;;4996536;28;20177;-84
2023/04/26 00:48:46;;;;;;;0.90;0.80;;;5.20;97.30;;;;;;4979972;28;20178;-86
2023/04/26 00:51:12;;;;;;;1.60;1.50;;;;;;;;;;4983443;28;20495;-85
2023/04/26 00:53:38;;;;;;;1.53;1.43;;;5.20;97.30;;;;;;4986559;28;20552;-85
2023/04/26 00:56:07;;;;;;;3.00;2.20;;;5.20;97.30;;;;;;4975289;28;20508;-84
2023/04/26 00:58:33;;;;;;;1.40;1.30;;;5.20;97.30;;;;;;4997474;28;20215;-82
2023/04/26 01:00:58;;;;;;;1.00;0.90;;;5.20;97.30;;;;;;4971725;28;20857;-84
2023/04/26 01:03:25;;;;;;;2.13;1.40;;;5.10;97.30;;;;;;4975648;28;20173;-84
2023/04/26 01:05:51;;;;;;;1.47;1.37;;;5.10;97.30;;;;;;4966327;28;20626;-84
2023/04/26 01:08:19;;;;;;;3.07;1.90;;;5.10;97.30;;;;;;5000491;28;20421;-86
2023/04/26 01:10:46;;;;;;;0.90;0.80;;;5.10;97.30;;;;;;4974679;28;20432;-86
2023/04/26 01:13:13;;;;;;;1.20;1.10;;;5.10;97.30;;;;;;4994695;28;20457;-86
2023/04/26 01:15:43;;;;;;;1.10;1.00;;;5.00;97.30;;;;;;4984006;28;20416;-87
2023/04/26 01:18:10;;;;;;;1.63;1.60;;;5.00;97.30;;;;;;4985777;28;20445;-86
2023/04/26 01:20:35;;;;;;;1.20;1.10;;;5.00;97.30;;;;;;5001717;28;20420;-85
2023/04/26 01:23:01;;;;;;;2.30;1.10;;;4.90;97.30;;;;;;4981170;28;20437;-85
2023/04/26 01:25:27;;;;;;;1.30;1.20;;;4.90;97.30;;;;;;4998337;28;20534;-85
2023/04/26 01:27:52;;;;;;;1.53;1.43;;;4.90;97.30;;;;;;4979876;28;20196;-85
2023/04/26 01:30:18;;;;;;;1.10;1.00;;;4.90;97.30;;;;;;4975256;28;20437;-85
2023/04/26 01:32:43;;;;;;;1.10;1.00;;;4.90;97.30;;;;;;4974991;28;20698;-85
2023/04/26 01:35:09;;;;;;;1.57;1.47;;;4.80;97.30;;;;;;4975244;28;20185;-84
2023/04/26 01:37:35;;;;;;;1.37;1.10;;;4.80;97.30;;;;;;4974472;28;20174;-86
2023/04/26 01:40:00;;;;;;;3.13;2.37;;;4.70;97.30;;;;;;4981330;28;20173;-85
2023/04/26 01:42:26;;;;;;;2.57;1.60;;;4.70;97.30;;;;;;4998813;28;20211;-84
2023/04/26 01:44:51;;;;;;;1.10;1.00;;;4.60;97.30;;;;;;4995210;28;20669;-86
2023/04/26 01:47:19;;;;;;;1.43;1.33;;;4.60;97.30;;;;;;4995181;28;20192;-85
2023/04/26 01:49:44;;;;;;;1.40;1.30;;;4.60;97.30;;;;;;4978374;28;20221;-84
2023/04/26 01:52:10;;;;;;;0.80;0.80;;;4.50;97.30;;;;;;4983909;28;20483;-85
2023/04/26 01:54:35;;;;;;;1.73;1.63;;;4.50;97.30;;;;;;4980117;28;20236;-85
2023/04/26 01:57:01;;;;;;;1.50;1.40;;;4.40;97.30;;;;;;4993355;28;20273;-84
2023/04/26 01:59:27;;;;;;;1.20;1.10;;;4.30;97.30;;;;;;4998297;28;20265;-84
2023/04/26 02:01:52;;;;;;;1.93;1.83;;;4.30;97.30;;;;;;4991627;28;20849;-84
2023/04/26 02:04:23;;;;;;;1.30;1.20;;;4.30;97.30;;;;;;4974873;28;20232;-85
2023/04/26 02:06:51;;;;;;;1.73;1.63;;;4.20;97.30;;;;;;4995991;28;20427;-84
2023/04/26 02:09:24;;;;;;;1.43;1.33;;;4.20;97.30;;;;;;4977858;28;20963;-85
2023/04/26 02:11:53;;;;;;;1.10;1.00;;;4.20;97.30;;;;;;4977258;28;20462;-85
2023/04/26 02:14:22;;;;;;;1.20;1.10;;;4.10;97.30;;;;;;4979235;28;20412;-86
2023/04/26 02:17:07;;;;;;;;;;;;;;;;;;;;;
2023/04/26 02:19:33;;;;;;;2.17;1.63;;;4.10;97.30;;;;;;4996172;28;20414;-86
2023/04/26 02:22:03;;;;;;;1.20;1.10;;;4.10;97.30;;;;;;4999379;28;20857;-84
2023/04/26 02:24:32;;;;;;;1.63;1.53;;;4.00;97.30;;;;;;4982077;28;20239;-86
2023/04/26 02:27:02;;;;;;;1.27;1.17;;;4.00;97.30;;;;;;4986412;28;20425;-90
2023/04/26 02:29:30;;;;;;;2.00;1.90;;;4.00;97.30;;;;;;5001569;28;20457;-85
2023/04/26 02:31:59;;;;;;;3.13;2.93;;;3.90;97.30;;;;;;4983403;28;20460;-86
2023/04/26 02:34:29;;;;;;;1.10;1.00;;;3.90;97.30;;;;;;4978287;28;20466;-87
2023/04/26 02:36:54;;;;;;;1.30;1.20;;;3.90;97.30;;;;;;4978364;28;20423;-87
2023/04/26 02:39:23;;;;;;;2.27;2.07;;;3.80;97.30;;;;;;4985334;28;20491;-84
2023/04/26 02:41:51;;;;;;;3.97;3.73;;;3.80;97.30;;;;;;4987296;28;20212;-84
2023/04/26 02:44:21;;;;;;;1.20;1.10;;;3.80;97.30;;;;;;4979507;28;21004;-83
2023/04/26 02:46:54;;;;;;;1.30;1.20;;;3.80;97.30;;;;;;4984205;28;20420;-85
2023/04/26 02:49:22;;;;;;;1.30;1.20;;;3.70;97.30;;;;;;4999545;28;20425;-86
2023/04/26 02:51:50;;;;;;;2.00;1.87;;;3.70;97.30;;;;;;4980856;28;20539;-85
2023/04/26 02:54:16;;;;;;;3.23;3.03;;;3.60;97.30;;;;;;4981565;28;20500;-85
2023/04/26 02:56:42;;;;;;;1.87;1.27;;;3.60;97.30;;;;;;4977311;28;21008;-88
2023/04/26 02:59:07;;;;;;;1.20;1.10;;;3.60;97.30;;;;;;4990395;28;20170;-86
2023/04/26 03:01:33;;;;;;;1.83;1.57;;;3.50;97.30;;;;;;4983841;28;20678;-86
2023/04/26 03:03:58;;;;;;;2.03;1.53;;;3.50;97.30;;;;;;4974621;28;20181;-87
2023/04/26 03:06:24;;;;;;;4.17;2.70;;;3.50;97.30;;;;;;4991059;28;20186;-86
2023/04/26 03:08:49;;;;;;;2.13;1.70;;;3.50;97.30;;;;;;4980668;28;20605;-85
2023/04/26 03:11:15;;;;;;;1.33;1.23;;;;;;;;;;4975937;28;20197;-88
2023/04/26 03:13:41;;;;;;;1.53;1.43;;;3.50;97.30;;;;;;4985897;28;20300;-87
2023/04/26 03:16:07;;;;;;;1.40;1.30;;;3.50;97.30;;;;;;4999107;28;20465;-85
2023/04/26 03:18:32;;;;;;;1.20;1.10;;;3.50;97.30;;;;;;5001783;28;20221;-84
2023/04/26 03:20:58;;;;;;;5.53;1.30;;;3.50;97.30;;;;;;4992730;28;20220;-88
2023/04/26 03:23:24;;;;;;;1.30;1.20;;;3.40;97.30;;;;;;5004435;28;20201;-88
2023/04/26 03:25:50;;;;;;;1.80;1.70;;;3.40;97.30;;;;;;4988962;28;20253;-87
2023/04/26 03:28:16;;;;;;;1.20;1.10;;;3.40;97.30;;;;;;4973616;28;20892;-88
2023/04/26 03:30:42;;;;;;;6.47;2.10;;;3.30;97.30;;;;;;4979544;28;20441;-88
2023/04/26 03:33:10;;;;;;;1.10;1.00;;;3.30;97.30;;;;;;4977034;28;20464;-87
2023/04/26 03:35:43;;;;;;;1.57;1.47;;;3.20;97.30;;;;;;4984246;28;20174;-84
2023/04/26 03:38:11;;;;;;;3.00;1.87;;;3.20;97.30;;;;;;4995466;28;20540;-87
2023/04/26 03:40:39;;;;;;;2.30;2.10;;;3.20;97.30;;;;;;4991703;28;20964;-87
2023/04/26 03:43:05;;;;;;;1.60;1.50;;;3.10;97.30;;;;;;4967911;28;20533;-87
2023/04/26 03:45:31;;;;;;;1.30;1.30;;;3.10;97.30;;;;;;4992346;28;20883;-86
2023/04/26 03:47:56;;;;;;;1.20;1.10;;;3.10;97.30;;;;;;4996311;28;20193;-89
2023/04/26 03:50:22;;;;;;;1.27;1.17;;;3.00;97.30;;;;;;4981353;28;20185;-86
2023/04/26 03:52:47;;;;;;;1.60;1.50;;;3.00;97.30;;;;;;4971215;28;20240;-87
2023/04/26 03:55:13;;;;;;;1.30;1.20;;;3.00;97.30;;;;;;4974757;28;20274;-86
2023/04/26 03:57:40;;;;;;;1.47;1.40;;;;;;;;;;4990048;28;20677;-88
2023/04/26 04:00:10;;;;;;;1.53;1.43;;;3.00;97.30;;;;;;4970545;28;20183;-86
2023/04/26 04:02:36;;;;;;;1.70;1.60;;;3.00;97.30;;;;;;4988267;28;20539;-85
2023/04/26 04:05:02;;;;;;;1.43;1.33;;;3.00;97.30;;;;;;4993284;28;20536;-87
2023/04/26 04:07:27;;;;;;;1.40;1.30;;;3.00;97.30;;;;;;4989571;28;20178;-88
2023/04/26 04:09:53;;;;;;;1.50;1.40;;;2.90;97.30;;;;;;4973272;28;20435;-83
2023/04/26 04:12:21;;;;;;;1.80;1.70;;;2.90;97.30;;;;;;4981607;28;20221;-86
2023/04/26 04:14:47;;;;;;;9.83;1.53;;;2.90;97.30;;;;;;4992895;28;20185;-87
2023/04/26 04:17:12;;;;;;;1.20;1.10;;;3.00;97.30;;;;;;4971229;28;20511;-84
2023/04/26 04:19:38;;;;;;;1.63;1.53;;;3.00;97.30;;;;;;4999046;28;20268;-86
2023/04/26 04:22:03;;;;;;;1.30;1.20;;;3.00;97.30;;;;;;4971916;28;20193;-86
2023/04/26 04:24:29;;;;;;;1.50;1.40;;;3.00;97.30;;;;;;4984328;28;20178;-85
2023/04/26 04:26:55;;;;;;;3.03;1.97;;;3.00;97.30;;;;;;4976730;28;20278;-86
2023/04/26 04:29:20;;;;;;;6.47;2.43;;;3.00;97.30;;;;;;4971729;28;20650;-86
2023/04/26 04:31:46;;;;;;;1.10;1.00;;;3.00;97.30;;;;;;4980727;28;20287;-86
2023/04/26 04:34:11;;;;;;;1.93;1.80;;;3.00;97.30;;;;;;4998875;28;20189;-87
2023/04/26 04:36:37;;;;;;;1.43;1.33;;;3.00;97.30;;;;;;4975048;28;20174;-85
2023/04/26 04:39:04;;;;;;;2.87;1.47;;;3.00;97.30;;;;;;4981961;28;20665;-87
2023/04/26 04:41:31;;;;;;;1.60;1.50;;;3.00;97.30;;;;;;4988114;28;20442;-88
2023/04/26 04:43:56;;;;;;;2.50;1.73;;;3.00;97.30;;;;;;4987562;28;20449;-86
2023/04/26 04:46:24;;;;;;;1.60;1.50;;;3.00;97.30;;;;;;4989008;28;20990;-84
2023/04/26 04:48:49;;;;;;;2.07;1.93;;;3.00;97.30;;;;;;4988554;28;20179;-85
2023/04/26 04:51:15;;;;;;;4.07;1.67;;;3.10;97.30;;;;;;4975572;28;20560;-85
2023/04/26 04:53:40;;;;;;;1.20;1.10;;;3.10;97.30;;;;;;4951441;28;20222;-85
2023/04/26 04:56:06;;;;;;;1.50;1.40;;;3.20;97.30;;;;;;4955762;28;20315;-85
2023/04/26 04:58:32;;;;;;;1.20;1.10;;;3.20;97.30;;;;;;4950948;28;20211;-85
2023/04/26 05:00:59;;;;;;;1.50;1.40;;;3.30;97.30;;;;;;4960290;28;20170;-85
2023/04/26 05:03:25;;;;;;;1.50;1.40;;;3.30;97.30;;;;;;4952833;28;20678;-85
2023/04/26 05:05:50;;;;;;;9.63;1.73;;;3.30;97.30;;;;;;4944218;28;20502;-87
2023/04/26 05:08:16;;;;;;;1.43;1.33;;;3.40;97.30;;;;;;4950972;28;20652;-84
2023/04/26 05:10:41;;;;;;;1.67;1.57;;;3.40;97.30;;;;;;4960145;28;20192;-85
2023/04/26 05:13:07;;;;;;;1.57;1.47;;;3.50;97.30;;;;;;4956008;28;20214;-87
2023/04/26 05:15:32;;;;;;;1.10;1.00;;;3.50;97.30;;;;;;4961435;28;20187;-85
2023/04/26 05:17:58;;;;;;;1.30;1.20;;;3.60;97.30;;;;;;4957388;28;20179;-86
2023/04/26 05:20:24;;;;;;;1.20;1.10;;;3.70;97.30;;;;;;4976331;28;20610;-87
2023/04/26 05:22:49;;;;;;;4.63;1.60;;;3.70;97.30;;;;;;4958877;28;20249;-86
2023/04/26 05:25:16;;;;;;;1.47;1.37;;;3.80;97.30;;;;;;4957683;28;20418;-85
2023/04/26 05:27:41;;;;;;;1.53;1.43;;;3.90;97.30;;;;;;4953830;28;20194;-85
2023/04/26 05:30:07;;;;;;;1.43;1.33;;;3.90;97.30;;;;;;4975036;28;20918;-86
2023/04/26 05:32:33;;;;;;;1.60;1.50;;;4.00;97.30;;;;;;4937342;28;20211;-86
2023/04/26 05:34:58;;;;;;;3.90;1.77;;;4.00;97.30;;;;;;4959616;28;20494;-87
2023/04/26 05:37:24;;;;;;;1.87;1.77;;;4.10;97.30;;;;;;4967012;28;20233;-85
2023/04/26 05:39:49;;;;;;;2.00;1.37;;;4.10;97.30;;;;;;4971326;28;20179;-85
2023/04/26 05:42:15;;;;;;;1.40;1.30;;;4.20;97.30;;;;;;4946073;28;20211;-86
2023/04/26 05:44:40;;;;;;;1.80;1.50;;;4.20;97.30;;;;;;4945479;28;20198;-86
2023/04/26 05:47:07;;;;;;;1.47;1.37;;;4.30;97.30;;;;;;4955009;28;20175;-84
2023/04/26 05:49:32;;;;;;;1.27;1.17;;;4.40;97.30;;;;;;4966241;28;20190;-87
2023/04/26 05:52:02;;;;;;;1.70;1.60;;;4.40;97.30;;;;;;4975185;28;20508;-85
2023/04/26 05:54:28;;;;;;;19.40;2.23;;;4.50;97.30;;;;;;4986457;28;20184;-85
2023/04/26 05:56:53;;;;;;;1.23;1.13;;;4.60;97.30;;;;;;4990767;28;20812;-86
2023/04/26 05:59:19;;;;;;;1.70;1.60;;;4.70;97.30;;;;;;4985440;28;20181;-87
2023/04/26 06:01:44;;;;;;;11.83;1.67;;;4.80;97.30;;;;;;5000485;28;20445;-84
2023/04/26 06:04:12;;;;;;;1.43;1.33;;;4.90;97.30;;;;;;4977773;28;20201;-86
2023/04/26 06:06:41;;;;;;;6.90;3.27;;;5.00;97.30;;;;;;5007928;28;20305;-85
2023/04/26 06:09:07;;;;;;;2.37;2.20;;;5.10;97.30;;;;;;4969521;28;20420;-85
2023/04/26 06:11:32;;;;;;;1.47;1.10;;;5.10;97.30;;;;;;4976635;28;20886;-85
2023/04/26 06:14:05;;;;;;;1.27;1.17;;;5.20;97.30;;;;;;4983745;28;20508;-86
2023/04/26 06:16:33;;;;;;;1.10;1.00;;;5.30;97.30;;;;;;4984091;28;20186;-82
2023/04/26 06:19:01;;;;;;;1.10;1.00;;;5.40;97.30;;;;;;4976813;28;20524;-85
2023/04/26 06:21:35;;;;;;;1.17;1.07;;;5.50;97.30;;;;;;4985074;28;20457;-84
2023/04/26 06:24:04;;;;;;;1.73;1.63;;;;;;;;;;4983705;28;20503;-85
2023/04/26 06:26:33;;;;;;;1.23;1.13;;;5.60;97.30;;;;;;5006612;28;20456;-81
2023/04/26 06:28:58;;;;;;;1.00;0.90;;;5.70;97.30;;;;;;5010880;28;20478;-86
2023/04/26 06:31:24;;;;;;;8.93;3.07;;;5.80;97.30;;;;;;4996981;28;20476;-85
2023/04/26 06:33:52;;;;;;;1.20;1.10;;;5.90;97.30;;;;;;5003873;28;20220;-86
2023/04/26 06:36:18;;;;;;;1.07;0.97;;;6.00;97.00;;;;;;4999783;28;20564;-85
2023/04/26 06:38:53;;;;;;;4.60;1.83;;;6.10;96.50;;;;;;4995192;28;20421;-86
2023/04/26 06:41:21;;;;;;;1.67;1.57;;;6.10;95.80;;;;;;4979195;28;20197;-84
2023/04/26 06:43:49;;;;;;;2.17;1.90;;;6.20;95.60;;;;;;4984412;28;20433;-86
2023/04/26 06:46:14;;;;;;;4.10;1.70;;;6.30;95.00;;;;;;4987077;28;20413;-85
2023/04/26 06:48:40;;;;;;;2.13;1.97;;;6.30;95.00;;;;;;4983670;28;20512;-85
2023/04/26 06:51:08;;;;;;;5.23;2.10;;;6.40;95.10;;;;;;4996111;28;20233;-85
2023/04/26 06:53:34;;;;;;;1.00;0.90;;;6.50;94.40;;;;;;4978191;28;20371;-85
2023/04/26 06:56:00;;;;;;;3.13;2.20;;;6.50;94.20;;;;;;4988276;28;20421;-86
2023/04/26 06:58:26;;;;;;;1.60;1.50;;;6.50;94.30;;;;;;4982757;28;20421;-86
2023/04/26 07:00:51;;;;;;;1.30;1.20;;;6.60;94.30;;;;;;4993727;28;20194;-85
2023/04/26 07:03:17;;;;;;;1.80;1.30;;;6.70;94.20;;;;;;4997693;28;20332;-85
2023/04/26 07:05:42;;;;;;;1.20;1.10;;;6.80;93.80;;;;;;4998509;28;20823;-85
2023/04/26 07:08:08;;;;;;;1.57;1.47;;;6.80;94.00;;;;;;4995826;28;20277;-85
2023/04/26 07:10:33;;;;;;;3.33;3.23;;;6.80;93.30;;;;;;4991945;28;20194;-86
2023/04/26 07:12:59;;;;;;;1.97;1.83;;;6.90;93.60;;;;;;5000502;28;20209;-87
2023/04/26 07:15:25;;;;;;;1.27;1.17;;;7.00;93.60;;;;;;5005896;28;20177;-86
2023/04/26 07:17:51;;;;;;;6.97;3.17;;;7.10;93.20;;;;;;4997592;28;20417;-86
2023/04/26 07:20:19;;;;;;;1.43;1.33;;;7.10;92.50;;;;;;4995510;28;20567;-85
2023/04/26 07:22:45;;;;;;;1.43;1.33;;;7.00;91.90;;;;;;4999733;28;20284;-87
2023/04/26 07:25:11;;;;;;;16.37;1.57;;;7.00;92.30;;;;;;4975686;28;20444;-87
2023/04/26 07:27:37;;;;;;;6.73;2.50;;;7.10;92.40;;;;;;4976459;28;20428;-84
2023/04/26 07:30:04;;;;;;;9.73;1.83;;;7.30;91.40;;;;;;4992836;28;20609;-85
2023/04/26 07:32:29;;;;;;;0.90;0.80;;;7.40;91.30;;;;;;4973850;28;20241;-86
2023/04/26 07:34:55;;;;;;;6.60;1.57;;;7.40;91.00;;;;;;4991435;28;20464;-85
2023/04/26 07:37:20;;;;;;;1.07;0.97;;;7.50;90.90;;;;;;4983784;28;20202;-87
2023/04/26 07:39:46;;;;;;;1.10;1.00;;;7.50;90.80;;;;;;4998752;28;20205;-85
2023/04/26 07:42:11;;;;;;;1.00;0.90;;;7.60;91.00;;;;;;4995580;28;20216;-84
2023/04/26 07:44:37;;;;;;;9.20;2.70;;;7.70;90.00;;;;;;4971334;28;20285;-86
2023/04/26 07:47:02;;;;;;;1.87;1.77;;;7.80;90.10;;;;;;4993519;28;20217;-85
2023/04/26 07:49:28;;;;;;;1.57;1.47;;;7.90;90.40;;;;;;4994405;28;20244;-84
2023/04/26 07:51:55;;;;;;;1.30;1.20;;;7.90;90.40;;;;;;5018855;28;20256;-85
2023/04/26 07:54:20;;;;;;;1.63;1.53;;;7.90;90.20;;;;;;5005875;28;20733;-85
2023/04/26 07:56:46;;;;;;;1.30;1.20;;;7.80;90.10;;;;;;4996740;28;20420;-85
2023/04/26 07:59:11;;;;;;;8.00;1.30;;;7.60;90.00;;;;;;4991950;28;20228;-86
2023/04/26 08:01:37;;;;;;;1.53;1.10;;;7.60;90.40;;;;;;4978658;28;20200;-85
2023/04/26 08:04:04;;;;;;;1.20;1.10;;;7.80;90.50;;;;;;4992114;28;20660;-85
2023/04/26 08:06:30;;;;;;;1.10;1.00;;;8.00;90.00;;;;;;4984749;28;20415;-86
2023/04/26 08:08:55;;;;;;;3.53;1.77;;;8.10;89.20;;;;;;4978462;28;20431;-85
2023/04/26 08:11:21;;;;;;;1.13;1.10;;;8.00;89.10;;;;;;4987821;28;20539;-85
2023/04/26 08:13:46;;;;;;;27.13;2.60;;;7.90;89.30;;;;;;4990543;28;20272;-84
2023/04/26 08:16:12;;;;;;;1.33;1.23;;;8.00;89.80;;;;;;4978827;28;20182;-88
2023/04/26 08:18:38;;;;;;;1.50;1.40;;;8.20;88.60;;;;;;4997423;28;20189;-85
2023/04/26 08:21:03;;;;;;;1.17;1.10;;;8.20;88.70;;;;;;4996198;28;20201;-85
2023/04/26 08:23:34;;;;;;;1.27;1.17;;;8.20;88.40;;;;;;4993848;28;20231;-85
2023/04/26 08:26:00;;;;;;;1.30;1.20;;;8.10;88.60;;;;;;4985557;28;20177;-86
2023/04/26 08:28:25;;;;;;;11.63;1.27;;;8.00;89.20;;;;;;4992754;28;20424;-85
2023/04/26 08:30:51;;;;;;;1.47;1.37;;;8.10;89.70;;;;;;4997388;28;20182;-87
2023/04/26 08:33:17;;;;;;;29.23;1.80;;;8.20;88.60;;;;;;4973770;28;20244;-84
2023/04/26 08:35:43;;;;;;;1.30;1.20;;;8.40;87.90;;;;;;4994707;28;20181;-85
2023/04/26 08:38:09;;;;;;;1.10;1.00;;;8.40;87.30;;;;;;4993325;28;21004;-84
2023/04/26 08:40:35;;;;;;;2.07;1.67;;;8.40;87.50;;;;;;4992741;28;20186;-84
2023/04/26 08:43:01;;;;;;;1.67;1.57;;;8.50;88.10;;;;;;4999268;28;20241;-85
2023/04/26 08:45:28;;;;;;;5.67;1.97;;;8.80;87.10;;;;;;4975370;28;20417;-86
2023/04/26 08:48:10;;;;;;;1.90;1.60;;;9.00;85.90;;;;;;4985176;28;20193;-84
2023/04/26 08:50:38;;;;;;;1.00;1.00;;;9.30;86.00;;;;;;4976356;28;21105;-84
2023/04/26 08:53:05;;;;;;;1.43;1.40;;;9.50;84.10;;;;;;4981886;28;20559;-85
2023/04/26 08:55:32;;;;;;;0.90;0.80;;;9.40;84.30;;;;;;4977566;28;20424;-85
2023/04/26 08:57:59;;;;;;;2.03;1.93;;;9.10;84.20;;;;;;4979036;28;20491;-85
2023/04/26 09:00:25;;;;;;;1.40;1.30;;;9.00;83.50;;;;;;4984311;28;20439;-84
2023/04/26 09:02:51;;;;;;;1.20;1.10;;;8.80;84.00;;;;;;5000593;28;20448;-83
2023/04/26 09:05:22;;;;;;;4.40;1.37;;;8.70;85.10;;;;;;4985583;28;20428;-84
2023/04/26 09:07:49;;;;;;;3.10;2.30;;;8.50;85.00;;;;;;4981117;28;20820;-84
2023/04/26 09:10:21;;;;;;;2.13;1.20;;;8.30;87.00;;;;;;4986253;28;20433;-84
2023/04/26 09:12:51;;;;;;;6.30;2.60;;;8.10;87.00;;;;;;4969725;28;20524;-84
2023/04/26 09:15:17;;;;;;;1.73;1.63;;;8.10;87.40;;;;;;4989165;28;20500;-85
2023/04/26 09:17:44;;;;;;;0.97;0.90;;;8.00;88.20;;;;;;4969809;28;20511;-81
2023/04/26 09:20:17;;;;;;;5.83;2.63;;;8.00;88.00;;;;;;4986613;28;20189;-84
2023/04/26 09:22:44;;;;;;;6.30;1.73;;;8.10;88.70;;;;;;4966001;28;21030;-86
2023/04/26 09:25:12;;;;;;;1.97;1.67;;;8.10;88.10;;;;;;4990805;28;20504;-87
2023/04/26 09:27:40;;;;;;;1.57;1.10;;;8.10;87.30;;;;;;4981335;28;20993;-84
2023/04/26 09:30:16;;;;;;;1.67;1.67;;;8.10;87.20;;;;;;4980284;28;20914;-84
2023/04/26 09:32:49;;;;;;;1.93;1.83;;;8.20;86.90;;;;;;4997967;28;20468;-84
2023/04/26 09:35:31;;;;;;;2.30;1.67;;;8.30;86.70;;;;;;4973199;28;20844;-82
2023/04/26 09:38:02;;;;;;;2.00;1.83;;;8.40;87.20;;;;;;4987933;28;20551;-84
2023/04/26 09:40:33;;;;;;;3.63;1.77;;;8.40;87.30;;;;;;4989594;28;20437;-84
2023/04/26 09:43:12;;;;;;;2.50;2.30;;;8.50;86.20;;;;;;4984476;28;20444;-85
2023/04/26 09:45:57;;;;;;;1.30;1.20;;;8.80;86.90;;;;;;4987399;28;20434;-84
2023/04/26 09:48:29;;;;;;;6.83;1.20;;;9.20;84.70;;;;;;4984375;28;20443;-86
2023/04/26 09:50:58;;;;;;;1.70;1.60;;;9.60;84.30;;;;;;4985804;28;20463;-87
2023/04/26 09:53:36;;;;;;;1.43;1.33;;;10.00;82.60;;;;;;4979709;28;20472;-84
2023/04/26 09:56:13;;;;;;;1.00;0.90;;;9.90;81.40;;;;;;4977507;28;20421;-85
2023/04/26 09:59:13;;;;;;;1.10;1.00;;;9.90;78.90;;;;;;4981200;28;20515;-85
2023/04/26 10:01:45;;;;;;;0.90;0.80;;;9.80;79.40;;;;;;4961788;28;20474;-84
2023/04/26 10:04:13;;;;;;;1.20;1.10;;;9.60;79.90;;;;;;4976637;28;20949;-85
2023/04/26 10:06:46;;;;;;;4.23;1.87;;;9.60;80.20;;;;;;4980516;28;20428;-84
2023/04/26 10:09:14;;;;;;;4.03;1.40;;;9.40;81.20;;;;;;4977671;28;20429;-87
2023/04/26 10:11:43;;;;;;;1.20;1.10;;;9.40;82.10;;;;;;4982852;28;20498;-84
2023/04/26 10:14:08;;;;;;;1.07;0.97;;;9.70;83.10;;;;;;4985210;28;20777;-86
2023/04/26 10:16:35;;;;;;;1.10;1.00;;;10.00;81.40;;;;;;4992657;28;20419;-84
2023/04/26 10:19:01;;;;;;;1.20;1.07;;;10.20;80.40;;;;;;4965672;28;20174;-85
2023/04/26 10:21:32;;;;;;;2.40;1.40;;;10.20;79.10;;;;;;4976994;28;20813;-85
2023/04/26 10:23:59;;;;;;;1.20;1.10;;;10.10;80.10;;;;;;4982793;28;20460;-84
2023/04/26 10:26:56;;;;;;;12.47;1.30;;;9.90;80.20;;;;;;4978273;28;20417;-87
2023/04/26 10:29:24;;;;;;;1.20;1.10;;;9.70;79.50;;;;;;4979309;28;20432;-86
2023/04/26 10:32:05;;;;;;;1.30;1.20;;;9.50;79.30;;;;;;5001156;28;20450;-82
2023/04/26 10:34:33;;;;;;;2.70;1.87;;;9.50;78.90;;;;;;4980657;28;20432;-82
2023/04/26 10:37:13;;;;;;;1.53;1.43;;;9.60;80.20;;;;;;4988885;28;20516;-84
2023/04/26 10:39:45;;;;;;;6.30;3.27;;;9.50;80.40;;;;;;4980690;28;20431;-85
2023/04/26 10:42:26;;;;;;;1.20;1.10;;;9.60;81.00;;;;;;4981243;28;20524;-85
2023/04/26 10:44:54;;;;;;;1.67;1.60;;;9.60;80.70;;;;;;4990834;28;20428;-84
2023/04/26 10:47:30;;;;;;;1.73;1.63;;;9.70;80.70;;;;;;4982851;28;20429;-86
2023/04/26 10:50:09;;;;;;;1.37;1.30;;;9.70;79.10;;;;;;4972228;28;20425;-87
2023/04/26 10:52:40;;;;;;;1.63;1.53;;;9.70;77.80;;;;;;4977260;28;20567;-84
2023/04/26 10:55:06;;;;;;;1.13;1.03;;;9.80;78.20;;;;;;4984262;28;20483;-84
2023/04/26 10:57:51;;;;;;;3.87;1.20;;;10.00;78.80;;;;;;4996128;28;20512;-85
2023/04/26 11:00:28;;;;;;;3.00;1.63;;;10.10;77.10;;;;;;4976545;28;20417;-84
2023/04/26 11:03:04;;;;;;;1.37;1.20;;;10.10;77.90;;;;;;4994678;28;20448;-85
2023/04/26 11:05:54;;;;;;;1.87;1.77;;;;;;;;;;4974154;28;20413;-85
2023/04/26 11:08:20;;;;;;;3.00;2.70;;;9.90;79.00;;;;;;4965664;28;20417;-84
2023/04/26 11:11:02;;;;;;;1.77;1.67;;;9.80;79.20;;;;;;4983570;28;20416;-86
2023/04/26 11:13:34;;;;;;;2.27;2.10;;;9.70;79.40;;;;;;4984342;28;20471;-86
2023/04/26 11:16:02;;;;;;;1.50;1.23;;;9.60;79.90;;;;;;4981980;28;20413;-87
2023/04/26 11:18:29;;;;;;;2.20;1.40;;;9.70;79.30;;;;;;4981358;28;20429;-84
2023/04/26 11:20:54;;;;;;;1.10;1.10;;;9.80;79.00;;;;;;5006948;28;20420;-86
2023/04/26 11:23:21;;;;;;;1.27;1.17;;;9.90;79.00;;;;;;4978938;28;20927;-86
2023/04/26 11:25:47;;;;;;;3.47;2.47;;;10.00;80.50;;;;;;4978663;28;20181;-85
2023/04/26 11:28:13;;;;;;;1.40;1.30;;;10.20;78.60;;;;;;5005709;28;20418;-80
2023/04/26 11:30:39;;;;;;;4.63;1.50;;;10.40;78.90;;;;;;4976971;28;20182;-84
2023/04/26 11:33:04;;;;;;;1.93;1.83;;;10.70;77.90;;;;;;4994708;28;20292;-86
2023/04/26 11:35:37;;;;;;;1.83;1.40;;;10.90;76.60;;;;;;4977199;28;20425;-84
2023/04/26 11:38:06;;;;;;;3.13;2.10;;;11.20;75.70;;;;;;5003281;28;20810;-84
2023/04/26 11:40:32;;;;;;;2.60;1.43;;;11.50;75.90;;;;;;4972415;28;20417;-84
2023/04/26 11:43:04;;;;;;;2.70;1.53;;;11.40;75.70;;;;;;4993078;28;20449;-86
2023/04/26 11:45:32;;;;;;;1.57;1.53;;;11.20;76.10;;;;;;4983687;28;20178;-86
2023/04/26 11:48:00;;;;;;;1.27;1.17;;;10.80;77.30;;;;;;4986611;28;20447;-83
2023/04/26 11:50:26;;;;;;;1.43;1.00;;;10.60;77.80;;;;;;4978039;28;20440;-86
2023/04/26 11:52:58;;;;;;;1.30;1.20;;;10.50;78.70;;;;;;4965217;28;20556;-85
2023/04/26 11:55:27;;;;;;;1.20;1.10;;;10.50;77.80;;;;;;4985169;28;20421;-85
2023/04/26 11:57:53;;;;;;;5.60;1.50;;;10.40;78.80;;;;;;4975460;28;20476;-84
2023/04/26 12:00:20;;;;;;;1.10;1.00;;;10.50;78.30;;;;;;4975393;28;20912;-84
2023/04/26 12:02:49;;;;;;;1.00;0.90;;;10.70;78.90;;;;;;4977330;28;20327;-84
2023/04/26 12:05:25;;;;;;;1.63;1.10;;;10.80;76.20;;;;;;4983690;28;20573;-84
2023/04/26 12:07:55;;;;;;;1.10;1.00;;;10.80;76.20;;;;;;4971562;28;20421;-84
2023/04/26 12:10:23;;;;;;;1.37;1.27;;;10.80;76.50;;;;;;4987264;28;20917;-86
2023/04/26 12:12:50;;;;;;;1.30;1.20;;;10.70;77.10;;;;;;4978367;28;20555;-84
2023/04/26 12:15:17;;;;;;;1.20;1.10;;;10.60;78.60;;;;;;4990547;28;20422;-84
2023/04/26 12:18:07;;;;;;;1.43;1.33;;;10.70;79.30;;;;;;4980035;28;20433;-84
2023/04/26 12:20:34;;;;;;;2.40;1.70;;;10.60;78.50;;;;;;4994222;28;20475;-84
2023/04/26 12:23:13;;;;;;;0.70;0.70;;;10.40;79.00;;;;;;4981945;28;20444;-84
2023/04/26 12:25:40;;;;;;;1.30;1.20;;;10.40;80.20;;;;;;4978948;28;20422;-85
2023/04/26 12:28:12;;;;;;;1.20;1.10;;;10.40;78.70;;;;;;4986189;28;20421;-86
2023/04/26 12:30:38;;;;;;;1.57;1.47;;;10.50;79.40;;;;;;4971654;28;20580;-84
2023/04/26 12:33:05;;;;;;;1.57;1.53;;;10.70;79.40;;;;;;4994152;28;20556;-85
2023/04/26 12:35:31;;;;;;;1.37;1.27;;;10.80;78.50;;;;;;4970718;28;20430;-84
2023/04/26 12:37:59;;;;;;;2.80;1.83;;;11.00;78.00;;;;;;4995140;28;20965;-84
2023/04/26 12:40:25;;;;;;;2.03;1.90;;;11.20;77.90;;;;;;4985784;28;20424;-84
2023/04/26 12:42:51;;;;;;;1.77;1.67;;;11.10;76.70;;;;;;4975786;28;20440;-82
2023/04/26 12:45:18;;;;;;;1.43;1.33;;;11.00;77.80;;;;;;4976457;28;20430;-84
2023/04/26 12:47:47;;;;;;;3.53;2.50;;;10.80;78.30;;;;;;4994787;28;20426;-84
2023/04/26 12:50:13;;;;;;;6.37;2.00;;;10.70;79.10;;;;;;4984219;28;20931;-84
2023/04/26 12:52:39;;;;;;;1.40;1.30;;;10.70;80.10;;;;;;4979499;28;20550;-85
2023/04/26 12:55:10;;;;;;;2.33;1.53;;;10.70;79.30;;;;;;4978120;28;20418;-86
2023/04/26 12:57:36;;;;;;;4.00;2.13;;;10.70;78.90;;;;;;5003008;28;20491;-84
2023/04/26 13:00:05;;;;;;;24.33;2.67;;;10.60;78.30;;;;;;4990848;28;20516;-86
2023/04/26 13:02:31;;;;;;;1.00;0.90;;;10.60;78.80;;;;;;4966685;28;20446;-85